Whale Point, California Weather observations

Data are for observation ending at time listed.
 Day   Time    Ave.   Ave.  Ave.  Vector   Max.   Stn.    Total    Solar   Ave.  
  of    of     Air    Rel.  Wind   Wind    Wind   Baro.  Precip.   Rad.    Soil  
Year   Day     Temp.  Hum.  Speed  Dir.    Gust   Pres.                    Temp. 
2017   (PST)    F      %     mph   deg.    mph     mb.     in.     W/m2     F   
------------------------------------------------------------------------------
 112    6:40   61.8    40    2.5    42      5.0   994.2    0.00      86    61.1
 112    6:50   57.9    60    2.7   150      4.2   994.2    0.00      92    61.0
 112    7:00   56.1    63    1.8    49      2.8   994.2    0.00      95    60.9
 112    7:10   57.8    55    1.3    55      2.5   993.9    0.00     150    60.9
 112    7:20   60.0    54    1.3   178      2.6   993.9    0.00     217    60.8
 112    7:30   58.2    60    0.4   116      1.1   993.9    0.00     227    60.7
 112    7:40   58.7    60    1.6    18      3.3   993.9    0.00     310    60.7
 112    7:50   60.1    56    1.7   164      4.8   994.2    0.00     379    60.6
 112    8:00   63.5    45    1.5   148      4.7   994.2    0.00     359    60.6
 112    8:10   62.8    51    0.8     4      3.4   994.2    0.00     439    60.5
 112    8:20   64.6    46    1.0   211      2.8   994.2    0.00     381    60.5
 112    8:30   60.8    58    3.2   192      7.4   994.2    0.00     420    60.5
 112    8:40   58.3    65    1.2   187      4.5   994.2    0.00     463    60.5
 112    8:50   59.8    64    1.2     4      3.3   994.2    0.00     568    60.5
 112    9:00   61.1    61    0.9     2      2.4   993.9    0.00     609    60.5
 112    9:10   65.1    45    3.6   176      5.9   993.9    0.00     705    60.5
 112    9:20   65.0    48    3.4   184      5.8   994.2    0.00     728    60.5
 112    9:30   63.3    56    1.7   186      5.0   994.2    0.00     763    60.5
 112    9:40   65.7    52    0.8   102      4.1   994.2    0.00     770    60.5
 112    9:50   67.2    52    1.2   216      3.3   994.6    0.00     815    60.6
 112   10:00   65.2    54    3.4   191      6.6   994.6    0.00     852    60.6
 112   10:10   59.7    63    4.2   196      7.6   994.6    0.00     926    60.6
 112   10:20   60.8    62    2.6   208      4.7   994.6    0.00     938    60.7
 112   10:30   63.0    53    4.3   178      7.6   994.6    0.00     915    60.7
 112   10:40   63.3    56    4.1   194      6.4   994.6    0.00     926    60.7
 112   10:50   61.2    62    4.2   206      6.9   994.6    0.00     803    60.8
 112   11:00   60.9    63    2.2   212      5.0   994.6    0.00     783    60.8
 112   11:10   62.4    61    1.8   204      3.2   994.6    0.00     862    60.8
 112   11:20   61.4    60    3.1   219      6.4   994.2    0.00     882    60.9
 112   11:30   60.5    59    4.6   209      7.9   994.6    0.00     880    60.9
 112   11:40   59.7    62    5.5   201      8.2   994.6    0.00     742    61.0
 112   11:50   58.9    63    5.1   192      7.4   994.6    0.00     873    61.1
 112   12:00   61.2    57    2.8   212      5.3   994.6    0.00     894    61.2
 112   12:10   61.0    61    3.2   210      6.0   994.6    0.00     772    61.3
 112   12:20   60.4    61    4.1   210      7.2   994.6    0.00     888    61.4
 112   12:30   59.6    62    4.7   213      8.3   994.6    0.00     780    61.6
 112   12:40   60.4    60    5.3   215      7.8   994.6    0.00     831    61.7
 112   12:50   61.1    58    3.2   235      6.6   994.2    0.00     836    61.8
 112   13:00   61.6    58    4.8   229      8.7   994.6    0.00     902    62.0
 112   13:10   62.1    58    3.9   237      6.4   994.6    0.00     898    62.2
 112   13:20   62.3    56    4.9   215      8.3   994.2    0.00     901    62.3
 112   13:30   61.4    60    4.3   219      8.3   994.2    0.00     924    62.5
 112   13:40   61.6    61    5.5   224      9.6   994.6    0.00     850    62.7
 112   13:50   61.2    62    3.2   236      7.1   994.6    0.00     743    62.9
 112   14:00   61.5    63    4.2   230      7.7   994.6    0.00     673    63.1
 112   14:10   61.2    66    4.8   231      8.3   994.6    0.00     639    63.3
 112   14:20   61.1    69    3.2   234      6.4   994.2    0.00     568    63.5
 112   14:30   60.4    69    3.0   229      6.6   994.2    0.00     332    63.7
 112   14:40   59.8    71    3.0   226      6.8   993.9    0.00     349    63.9
 112   14:50   58.1    74    3.7   255      9.3   993.9    0.00     337    64.1
 112   15:00   58.2    75    1.5   275      4.7   993.6    0.00     360    64.3
 112   15:10   58.8    74    4.8   211      9.4   993.6    0.00     434    64.5
 112   15:20   57.6    77    4.3   217      8.1   993.9    0.00     387    64.7
 112   15:30   57.7    78    1.1   256      4.7   993.6    0.00     357    64.8
 112   15:40   58.2    77    3.2   204      6.9   993.9    0.00     349    64.9
 112   15:50   58.0    79    2.2   213      5.8   993.6    0.00     372    65.1
 112   16:00   59.3    77    0.7   283      1.9   993.6    0.00     380    65.2
 112   16:10   59.1    76    2.8   198      5.6   993.6    0.00     297    65.3
 112   16:20   57.7    80    2.8   202      5.3   993.2    0.00     278    65.4
 112   16:30   58.0    80    1.5   211      5.0   993.2    0.00     239    65.5
 112   16:40   59.9    76    2.7   147      5.3   993.2    0.00     209    65.5
 112   16:50   59.5    76    2.8   197      4.5   993.2    0.00     149    65.6
 112   17:00   57.6    80    2.6    95      5.2   993.2    0.00     124    65.7
 112   17:10   58.8    77    2.7    37      5.6   992.9    0.00     114    65.8
 112   17:20   59.6    76    1.7   189      3.4   992.9    0.00     117    65.8
 112   17:30   58.0    79    2.8   205      5.3   992.9    0.00     118    65.8
 112   17:40   55.9    84    1.7   168      3.2   992.6    0.00     108    65.8
 112   17:50   55.4    85    1.2   210      6.1   992.6    0.00      85    65.8
 112   18:00   54.3    87    2.9   187      5.6   992.6    0.00      66    65.9
 112   18:10   53.8    88    1.8   247      4.0   992.6    0.00      45    65.9
 112   18:20   53.5    89    3.5   175      6.9   993.2    0.00      54    65.9
 112   18:30   53.6    89    5.5    45      9.7   992.9    0.00      55    65.9
 112   18:40   54.5    86    4.1   158      7.9   992.6    0.00      33    65.9
 112   18:50   53.2    89    3.0   223      7.5   992.9    0.00      12    65.8
 112   19:00   53.5    88    3.1    61      7.3   992.9    0.00       2    65.8
 112   19:10   53.6    87    8.3    63     13.3   992.6    0.00       0    65.8
 112   19:20   53.5    87    2.2   131      9.2   992.6    0.00       0    65.7
 112   19:30   53.7    88    2.5    53      5.4   992.6    0.00       0    65.7
 112   19:40   54.1    86    1.0   110      4.7   992.9    0.00       0    65.6
 112   19:50   53.6    87    1.1    44      3.2   992.9    0.00       0    65.5
 112   20:00   53.6    88    1.5    41      4.7   992.6    0.00       0    65.4
 112   20:10   54.8    85    1.2   136      4.0   992.2    0.00       0    65.4
 112   20:20   55.5    80    2.2   105      5.7   992.2    0.00       0    65.3
 112   20:30   55.7    81    2.2   145      4.0   992.2    0.00       0    65.2
 112   20:40   55.7    82    1.4   123      3.5   992.6    0.00       0    65.2
 112   20:50   56.3    80    1.0    46      3.0   992.6    0.00       0    65.1
 112   21:00   56.6    80    0.8    38      2.2   992.6    0.00       0    65.0
 112   21:10   56.7    78    1.3   170      3.1   992.6    0.00       0    64.9
 112   21:20   55.4    81    0.7   159      2.9   992.2    0.00       0    64.8
 112   21:30   54.7    83    1.4   118      3.5   992.2    0.00       0    64.7
 112   21:40   54.8    84    0.6    36      2.3   992.2    0.00       0    64.6
 112   21:50   56.6    76    0.9    66      3.4   992.2    0.00       0    64.5
 112   22:00   58.5    70    2.3    88      5.9   992.2    0.00       0    64.4
 112   22:10   57.2    75    2.2   182      7.7   992.2    0.00       0    64.3
 112   22:20   53.7    85    3.5   184      6.1   992.2    0.00       0    64.2
 112   22:30   53.2    86    2.5   139      7.3   992.6    0.00       0    64.1
 112   22:40   53.5    84    3.0   119      6.6   992.6    0.00       0    64.1
 112   22:50   54.6    80    1.7   131      5.3   992.6    0.00       0    64.0
 112   23:00   54.5    80    0.4    31      2.3   992.6    0.00       0    63.9
 112   23:10   54.3    81    0.1   137      1.2   992.6    0.00       0    63.8
 112   23:20   54.1    81    1.7    63      5.0   992.6    0.00       0    63.7
 112   23:30   54.2    81    1.6   141      4.7   992.2    0.00       0    63.6
 112   23:40   52.2    85    0.5   149      1.8   992.2    0.00       0    63.5
 112   23:50   51.7    88    1.9   149      6.9   992.2    0.00       0    63.4
 113    0:00   52.4    87    5.2   147      8.3   991.9    0.00       0    63.3
 113    0:10   52.2    86    6.4   147     10.2   991.9    0.00       0    63.2
 113    0:20   52.8    84    4.9   122      9.4   991.9    0.00       0    63.1
 113    0:30   53.1    82    2.5   113      4.9   991.9    0.00       0    63.0
 113    0:40   54.3    78    1.8   108      4.6   991.9    0.00       0    62.9
 113    0:50   54.0    77    1.8   176      3.7   991.9    0.00       0    62.8
 113    1:00   51.8    83    1.3   131      3.4   991.9    0.00       0    62.7
 113    1:10   50.9    86    0.5    40      1.5   991.9    0.00       0    62.7
 113    1:20   51.0    87    0.2    36      1.2   991.9    0.00       0    62.6
 113    1:30   50.7    87    2.3   144      4.4   991.9    0.00       0    62.5
 113    1:40   50.8    87    3.0   152      4.7   991.9    0.00       0    62.4
 113    1:50   51.0    87    1.0   104      2.6   991.9    0.00       0    62.3
 113    2:00   51.4    86    3.5    67      6.9   991.9    0.00       0    62.2
 113    2:10   51.5    86    1.6   144      5.3   991.5    0.00       0    62.1
 113    2:20   51.9    84    1.7   155      3.7   991.9    0.00       0    62.1
 113    2:30   51.5    84    1.0    43      3.3   991.9    0.00       0    62.0
 113    2:40   51.1    86    2.7    29      4.3   991.5    0.00       0    61.9
 113    2:50   51.7    84    1.5   129      3.6   991.5    0.00       0    61.8
 113    3:00   50.9    86    1.6   164      3.0   991.5    0.00       0    61.7
 113    3:10   50.6    87    0.4   150      4.4   991.9    0.00       0    61.7
 113    3:20   50.6    88    4.5   146      6.4   991.9    0.00       0    61.6
 113    3:30   51.1    85    2.3   166      6.6   992.2    0.00       0    61.5
 113    3:40   50.7    86    4.4    44      7.7   991.9    0.00       0    61.4
 113    3:50   51.0    86    6.4    54      9.1   991.9    0.00       0    61.4
 113    4:00   52.0    83    8.6    70     12.4   991.5    0.00       0    61.3
 113    4:10   52.7    79    3.5   164      8.6   991.9    0.00       0    61.2
 113    4:20   50.6    84    3.9   156      9.4   991.9    0.00       0    61.1
 113    4:30   50.2    87    4.9   135      9.0   991.9    0.00       0    61.1
 113    4:40   50.1    87    2.9   124      5.8   992.2    0.00       0    61.0
 113    4:50   50.0    87    2.7    79      5.5   992.2    0.00       0    61.0
 113    5:00   50.0    86    4.4    57      8.0   992.2    0.00       0    60.9
 113    5:10   50.1    86    2.1    64      7.1   992.2    0.00       0    60.8
 113    5:20   50.5    85    7.0    54     10.2   992.2    0.00       1    60.7
 113    5:30   51.2    82    4.3    72     10.3   992.2    0.00       6    60.7
 113    5:40   51.7    79    2.4   181      7.3   992.6    0.00      21    60.6
 113    5:50   50.3    84    4.5   186      8.7   992.9    0.00      33    60.5
 113    6:00   50.1    86    5.0   158      7.7   992.9    0.00      43    60.5
 113    6:10   50.3    84    3.7    57      6.3   992.9    0.00      53    60.4
 113    6:20   50.7    82    5.5    21      9.3   992.9    0.00      67    60.3
 113    6:30   50.8    82    2.6    57      7.2   992.9    0.00      79    60.3

Return to Whale Point graphs page.


Western Regional Climate Center,wrcc@dri.edu